Portada
METAR-TAF:

METAR-TAF

Aeroports :

Savannakhet, Laos

latitud: 16-33-24N, longitud: 104-45-34E, altitud: 155 m

Observació

L'informe es va fer fa 4 hores i 0 minuts, a les 13:00 UTC
Vent 4 kt del Sud
Temperatura 28°C
Humitat 74%
Pressió 1006 hPa
Visibilitat: 5000 m
Núvols disperses a una alçada de 1600 ft
Escasses núvols a una alçada de 2300 ft, Cumulonimbus.
Cel ennuvolat a una alçada de 9300 ft
tempesta, pluja

METAR: VLSK 191300Z 18004KT 5000 TSRA SCT016 FEW023CB BKN093 28/23 Q1006 CB,OVER AD NOSIG

Hora: 00:00 (17:00 UTC)

Pronòstic

L'informe es va fer fa 6 hores i 0 minuts, a les 11:00 UTC
Pronòstic vàlid del 19 a les 12 UTC al 20 a les 12 UTC
Vent 4 kt del Oest/Sud-Oest
Visibilitat: 5000 m
Núvols disperses a una alçada de 1600 ft
Escasses núvols a una alçada de 2700 ft, Cumulonimbus.
Núvols disperses a una alçada de 5000 ft
Cel ennuvolat a una alçada de 10000 ft
tempesta, pluja

TAF: VLSK 191100Z 1912/2012 24004KT 5000 TSRA SCT016 FEW027CB SCT050 BKN100

Observacions i pronòstics meteorològics de més de 4000 aeroports (METAR i TAF).

Les estacions disponibles són els punts grocs i vermells al mapa.

Posi el ratolí al punt desitjat per veure el nom de l'estació.

Feu clic per veure les observacions i els pronòstics meteorològics.

Per canviar el mapa: feu clic els botons verds amb una creu de color negre per apropar; al botó verd amb un guió per allunyar la imatge; o en les fletxes verdes per a mapes adjacents.


METAR-TAF: